createdAt,value
2018-12-14T00:00:43.046Z,80.17
2018-12-14T00:03:21.495Z,82.10
2018-12-14T00:06:00.124Z,71.83
2018-12-14T00:08:35.953Z,61.70
2018-12-14T00:11:12.901Z,71.97
2018-12-14T00:13:49.018Z,74.13
2018-12-14T00:16:24.938Z,72.00
2018-12-14T00:19:01.162Z,71.80
2018-12-14T00:21:37.006Z,74.67
2018-12-14T00:24:13.675Z,72.63
2018-12-14T00:26:49.711Z,64.97
2018-12-14T00:29:26.233Z,72.07
2018-12-14T00:32:02.944Z,61.60
2018-12-14T00:34:39.311Z,62.40
2018-12-14T00:37:15.083Z,65.33
2018-12-14T00:39:51.175Z,69.63
2018-12-14T00:42:27.776Z,66.77
2018-12-14T00:45:03.901Z,62.53
2018-12-14T00:47:39.935Z,65.37
2018-12-14T00:50:16.190Z,68.33
2018-12-14T00:52:51.937Z,59.03
2018-12-14T00:55:27.930Z,65.07
2018-12-14T00:58:03.673Z,66.70
2018-12-14T01:00:39.610Z,64.70
2018-12-14T01:03:16.727Z,68.47
2018-12-14T01:05:52.393Z,64.17
2018-12-14T01:08:28.506Z,63.97
2018-12-14T01:11:04.438Z,64.77
2018-12-14T01:13:41.180Z,69.67
2018-12-14T01:16:20.336Z,69.57
2018-12-14T01:18:56.874Z,77.93
2018-12-14T01:21:32.912Z,70.07
2018-12-14T01:24:08.578Z,71.73
2018-12-14T01:26:44.603Z,65.47
2018-12-14T01:29:21.473Z,74.50
2018-12-14T01:31:57.330Z,82.87
2018-12-14T01:34:32.979Z,75.40
2018-12-14T01:37:08.801Z,78.83
2018-12-14T01:39:44.497Z,84.73
2018-12-14T01:42:20.425Z,83.60
2018-12-14T01:44:56.543Z,71.50
2018-12-14T01:47:32.268Z,81.10
2018-12-14T01:50:08.466Z,76.83
2018-12-14T01:52:44.117Z,74.47
2018-12-14T01:55:19.850Z,82.80
2018-12-14T01:57:55.752Z,86.80
2018-12-14T02:00:31.393Z,81.47
2018-12-14T02:03:07.510Z,85.43
2018-12-14T02:05:43.346Z,75.67
2018-12-14T02:08:19.486Z,79.20
2018-12-14T02:10:55.076Z,74.23
2018-12-14T02:13:31.069Z,79.67
2018-12-14T02:16:06.832Z,87.90
2018-12-14T02:18:43.141Z,77.73
2018-12-14T02:21:20.486Z,76.13
2018-12-14T02:23:56.591Z,71.37
2018-12-14T02:26:32.573Z,63.50
2018-12-14T02:29:08.451Z,76.23
2018-12-14T02:31:44.510Z,72.03
2018-12-14T02:34:20.365Z,75.60
2018-12-14T02:36:56.247Z,69.83
2018-12-14T02:39:32.553Z,84.80
2018-12-14T02:42:08.869Z,71.40
2018-12-14T02:44:44.913Z,75.57
2018-12-14T02:47:20.641Z,70.73
2018-12-14T02:49:56.644Z,78.47
2018-12-14T02:52:32.338Z,70.13
2018-12-14T02:55:08.700Z,75.90
2018-12-14T02:57:44.968Z,73.23
2018-12-14T03:00:21.072Z,71.47
2018-12-14T03:02:56.752Z,82.00
2018-12-14T03:05:33.213Z,79.90
2018-12-14T03:08:09.546Z,87.73
2018-12-14T03:10:45.491Z,70.40
2018-12-14T03:13:21.470Z,82.37
2018-12-14T03:15:57.206Z,78.40
2018-12-14T03:18:33.145Z,75.77
2018-12-14T03:21:09.045Z,71.20
2018-12-14T03:23:44.896Z,73.80
2018-12-14T03:26:21.419Z,76.47
2018-12-14T03:28:57.459Z,82.90
2018-12-14T03:31:33.580Z,75.77
2018-12-14T03:34:09.522Z,82.30
2018-12-14T03:36:45.665Z,77.37
2018-12-14T03:39:21.535Z,80.40
2018-12-14T03:41:57.095Z,71.63
2018-12-14T03:44:32.939Z,73.40
2018-12-14T03:47:08.654Z,72.90
2018-12-14T03:49:44.573Z,77.33
2018-12-14T03:52:20.461Z,82.93
2018-12-14T03:54:56.344Z,81.17
2018-12-14T03:57:32.402Z,72.43
2018-12-14T04:00:09.814Z,73.63
2018-12-14T04:02:46.464Z,73.63
2018-12-14T04:05:22.544Z,70.63
2018-12-14T04:07:58.148Z,76.57
2018-12-14T04:10:34.018Z,79.90
2018-12-14T04:13:09.963Z,77.87
2018-12-14T04:15:45.883Z,64.43
2018-12-14T04:18:21.752Z,73.80
2018-12-14T04:20:57.595Z,67.23
2018-12-14T04:23:33.522Z,66.33
2018-12-14T04:26:09.541Z,71.70
2018-12-14T04:28:45.414Z,73.80
2018-12-14T04:31:21.173Z,68.67
2018-12-14T04:33:56.925Z,71.60
2018-12-14T04:36:32.965Z,67.43
2018-12-14T04:39:10.839Z,76.27
2018-12-14T04:41:47.304Z,69.50
2018-12-14T04:44:22.822Z,75.50
2018-12-14T04:46:59.081Z,71.93
2018-12-14T04:49:34.769Z,73.27
2018-12-14T04:52:11.647Z,73.13
2018-12-14T04:54:47.416Z,61.77
2018-12-14T04:57:23.369Z,69.63
2018-12-14T04:59:59.239Z,62.63
2018-12-14T05:02:35.124Z,66.43
2018-12-14T05:05:10.783Z,63.93
2018-12-14T05:07:46.648Z,61.07
2018-12-14T05:10:22.871Z,65.97
2018-12-14T05:12:58.471Z,66.97
2018-12-14T05:15:35.043Z,66.57
2018-12-14T05:18:11.452Z,72.83
2018-12-14T05:20:47.229Z,74.50
2018-12-14T05:23:23.114Z,69.00
2018-12-14T05:25:59.066Z,73.20
2018-12-14T05:28:34.864Z,74.67
2018-12-14T05:31:10.863Z,74.37
2018-12-14T05:33:46.740Z,76.70
2018-12-14T05:36:22.556Z,72.63
2018-12-14T05:38:58.414Z,71.97
2018-12-14T05:41:34.634Z,76.33
2018-12-14T05:44:10.602Z,79.37
2018-12-14T05:46:46.411Z,82.43
2018-12-14T05:49:22.704Z,74.23
2018-12-14T05:51:58.327Z,68.87
2018-12-14T05:54:34.044Z,79.43
2018-12-14T05:57:09.990Z,71.00
2018-12-14T05:59:46.407Z,79.57
2018-12-14T06:02:21.948Z,77.30
2018-12-14T06:04:59.763Z,76.93
2018-12-14T06:07:35.959Z,86.47
2018-12-14T06:10:11.673Z,75.30
2018-12-14T06:12:47.403Z,77.20
2018-12-14T06:15:23.458Z,73.90
2018-12-14T06:17:59.529Z,81.43
2018-12-14T06:20:35.531Z,84.30
2018-12-14T06:23:11.426Z,76.43
2018-12-14T06:25:47.394Z,77.73
2018-12-14T06:28:24.440Z,86.90
2018-12-14T06:31:00.389Z,74.83
2018-12-14T06:33:37.117Z,71.13
2018-12-14T06:36:12.734Z,78.13
2018-12-14T06:38:48.675Z,78.30
2018-12-14T06:41:24.768Z,81.07
2018-12-14T06:44:00.671Z,71.40
2018-12-14T06:46:36.412Z,78.73
2018-12-14T06:49:12.240Z,73.83
2018-12-14T06:51:48.385Z,69.03
2018-12-14T06:54:24.091Z,77.00
2018-12-14T06:57:00.230Z,67.43
2018-12-14T06:59:35.852Z,77.67
2018-12-14T07:02:11.710Z,72.90
2018-12-14T07:04:47.522Z,69.20
2018-12-14T07:07:23.311Z,72.30
2018-12-14T07:09:59.201Z,71.97
2018-12-14T07:12:35.105Z,73.73
2018-12-14T07:15:11.113Z,67.33
2018-12-14T07:17:46.835Z,64.80
2018-12-14T07:20:22.928Z,69.17
2018-12-14T07:22:58.418Z,61.93
2018-12-14T07:25:34.518Z,64.20
2018-12-14T07:28:10.248Z,66.87
2018-12-14T07:30:46.177Z,62.63
2018-12-14T07:33:22.017Z,58.87
2018-12-14T07:35:57.861Z,59.93
2018-12-14T07:38:33.664Z,57.50
2018-12-14T07:41:09.769Z,56.13
2018-12-14T07:43:45.423Z,57.57
2018-12-14T07:46:21.389Z,56.73
2018-12-14T07:48:57.080Z,53.90
2018-12-14T07:51:33.099Z,53.30
2018-12-14T07:54:09.085Z,54.07
2018-12-14T07:56:45.031Z,52.63
2018-12-14T07:59:20.984Z,53.13
2018-12-14T08:01:56.802Z,57.43
2018-12-14T08:04:33.187Z,52.67
2018-12-14T08:07:09.662Z,65.63
2018-12-14T08:09:46.118Z,58.17
2018-12-14T08:12:22.284Z,59.70
2018-12-14T08:14:57.871Z,58.37
2018-12-14T08:17:33.559Z,56.17
2018-12-14T08:20:09.404Z,56.40
2018-12-14T08:22:45.390Z,52.97
2018-12-14T08:25:21.197Z,55.90
2018-12-14T08:27:57.062Z,54.40
2018-12-14T08:30:32.646Z,54.73
2018-12-14T08:33:08.560Z,52.63
2018-12-14T08:35:44.911Z,66.57
2018-12-14T08:38:21.284Z,51.77
2018-12-14T08:40:57.122Z,58.57
2018-12-14T08:43:33.432Z,54.53
2018-12-14T08:46:10.232Z,57.83
2018-12-14T08:48:46.070Z,56.27
2018-12-14T08:51:22.517Z,49.93
2018-12-14T08:53:58.344Z,54.10
2018-12-14T08:56:34.242Z,52.90
2018-12-14T08:59:10.148Z,58.43
2018-12-14T09:01:45.985Z,57.87
2018-12-14T09:04:21.881Z,53.80
2018-12-14T09:06:57.906Z,54.80
2018-12-14T09:09:34.062Z,54.70
2018-12-14T09:12:10.481Z,43.77
2018-12-14T09:14:46.929Z,41.87
2018-12-14T09:17:23.211Z,44.80
2018-12-14T09:19:59.866Z,41.97
2018-12-14T09:22:35.571Z,47.80
2018-12-14T09:25:11.598Z,49.10
2018-12-14T09:27:47.598Z,43.83
2018-12-14T09:30:23.420Z,50.20
2018-12-14T09:32:59.572Z,43.43
2018-12-14T09:35:35.245Z,46.33
2018-12-14T09:38:10.893Z,50.80
2018-12-14T09:40:46.811Z,46.37
2018-12-14T09:43:22.516Z,40.13
2018-12-14T09:45:58.398Z,44.20
2018-12-14T09:48:34.345Z,48.80
2018-12-14T09:51:12.461Z,45.63
2018-12-14T09:53:48.558Z,41.33
2018-12-14T09:56:25.020Z,46.13
2018-12-14T09:59:01.428Z,45.87
2018-12-14T10:01:37.211Z,41.07
2018-12-14T10:04:13.227Z,44.80
2018-12-14T10:06:49.855Z,57.50
2018-12-14T10:09:25.647Z,56.03
2018-12-14T10:12:01.508Z,58.67
2018-12-14T10:14:37.193Z,74.30
2018-12-14T10:17:13.103Z,90.33
2018-12-14T10:19:49.067Z,74.10
2018-12-14T10:22:24.838Z,74.80
2018-12-14T10:25:00.608Z,76.03
2018-12-14T10:27:36.569Z,61.83
2018-12-14T10:30:12.296Z,66.93
2018-12-14T10:32:48.788Z,61.47
2018-12-14T10:35:25.743Z,59.67
2018-12-14T10:38:01.967Z,54.60
2018-12-14T10:40:38.524Z,49.00
2018-12-14T10:43:14.790Z,45.20
2018-12-14T10:45:50.888Z,52.77
2018-12-14T10:48:26.620Z,47.70
2018-12-14T10:51:03.168Z,48.53
2018-12-14T10:53:39.529Z,47.73
2018-12-14T10:56:15.692Z,47.73
2018-12-14T10:58:51.680Z,47.47
2018-12-14T11:01:32.485Z,47.27
2018-12-14T11:04:08.001Z,45.67
2018-12-14T11:06:43.946Z,51.53
2018-12-14T11:09:21.059Z,46.63
2018-12-14T11:11:57.724Z,45.30
2018-12-14T11:14:34.258Z,43.83
2018-12-14T11:17:10.313Z,50.30
2018-12-14T11:19:45.942Z,48.67
2018-12-14T11:22:21.991Z,48.93
2018-12-14T11:24:58.106Z,47.03
2018-12-14T11:27:33.843Z,45.47
2018-12-14T11:30:11.017Z,40.73
2018-12-14T11:32:47.532Z,39.53
2018-12-14T11:35:23.608Z,43.37
2018-12-14T11:37:59.249Z,43.03
2018-12-14T11:40:35.265Z,41.57
2018-12-14T11:43:11.033Z,42.37
2018-12-14T11:45:47.151Z,40.07
2018-12-14T11:48:23.764Z,45.90
2018-12-14T11:51:01.639Z,39.77
2018-12-14T11:53:37.661Z,39.63
2018-12-14T11:56:14.458Z,40.80
2018-12-14T11:58:50.472Z,41.53
2018-12-14T12:01:28.124Z,45.57
2018-12-14T12:04:03.860Z,43.90
2018-12-14T12:06:39.449Z,43.57
2018-12-14T12:09:16.461Z,39.63
2018-12-14T12:11:52.659Z,39.83
2018-12-14T12:14:28.259Z,37.50
2018-12-14T12:17:04.186Z,39.90
2018-12-14T12:19:40.368Z,43.53
2018-12-14T12:22:16.150Z,45.00
2018-12-14T12:24:52.031Z,43.33
2018-12-14T12:27:28.924Z,42.73
2018-12-14T12:30:05.806Z,44.73
2018-12-14T12:32:41.639Z,44.70
2018-12-14T12:35:17.411Z,40.70
2018-12-14T12:37:53.189Z,40.07
2018-12-14T12:40:28.987Z,40.93
2018-12-14T12:43:05.232Z,40.30
2018-12-14T12:45:41.833Z,40.33
2018-12-14T12:48:17.922Z,44.33
2018-12-14T12:50:53.743Z,49.03
2018-12-14T12:53:29.668Z,46.63
2018-12-14T12:56:06.278Z,41.77
2018-12-14T12:58:41.988Z,42.27
2018-12-14T13:01:18.025Z,41.63
2018-12-14T13:03:53.737Z,49.27
2018-12-14T13:06:29.634Z,55.57
2018-12-14T13:09:06.543Z,43.53
2018-12-14T13:11:42.537Z,47.30
2018-12-14T13:14:18.377Z,46.60
2018-12-14T13:16:54.319Z,47.73
2018-12-14T13:19:30.224Z,47.17
2018-12-14T13:22:06.236Z,50.53
2018-12-14T13:24:42.780Z,49.10
2018-12-14T13:27:20.397Z,46.60
2018-12-14T13:29:56.542Z,50.03
2018-12-14T13:32:32.625Z,48.40
2018-12-14T13:35:08.360Z,50.37
2018-12-14T13:37:44.170Z,49.40
2018-12-14T13:40:20.080Z,47.43
2018-12-14T13:42:55.790Z,57.03
2018-12-14T13:45:31.701Z,70.73
2018-12-14T13:48:09.288Z,51.57
2018-12-14T13:50:45.349Z,49.60
2018-12-14T13:53:21.884Z,50.43
2018-12-14T13:55:58.030Z,53.53
2018-12-14T13:58:34.520Z,43.73
2018-12-14T14:01:11.144Z,46.67
2018-12-14T14:03:47.008Z,49.70
2018-12-14T14:06:23.917Z,46.87
2018-12-14T14:09:01.353Z,46.43
2018-12-14T14:11:37.403Z,52.70
2018-12-14T14:14:13.384Z,56.73
2018-12-14T14:16:50.754Z,66.40
2018-12-14T14:19:27.710Z,74.80
2018-12-14T14:22:04.365Z,60.40
2018-12-14T14:24:41.151Z,54.30
2018-12-14T14:27:16.720Z,56.43
2018-12-14T14:29:52.943Z,52.97
2018-12-14T14:32:28.903Z,58.50
2018-12-14T14:35:05.714Z,49.87
2018-12-14T14:37:41.870Z,64.53
2018-12-14T14:40:17.687Z,56.63
2018-12-14T14:42:54.271Z,64.60
2018-12-14T14:45:30.398Z,53.07
2018-12-14T14:48:06.482Z,41.87
2018-12-14T14:50:42.545Z,46.20
2018-12-14T14:53:19.569Z,47.00
2018-12-14T14:55:56.013Z,50.93
2018-12-14T14:58:32.006Z,43.87
2018-12-14T15:01:08.145Z,49.50
2018-12-14T15:03:43.960Z,60.93
2018-12-14T15:06:19.762Z,57.03
2018-12-14T15:08:55.707Z,46.40
2018-12-14T15:11:31.382Z,42.17
2018-12-14T15:14:07.262Z,40.50
2018-12-14T15:16:43.185Z,42.17
2018-12-14T15:19:19.073Z,41.10
2018-12-14T15:21:54.996Z,43.80
2018-12-14T15:24:31.005Z,46.93
2018-12-14T15:27:07.687Z,39.47
2018-12-14T15:29:43.441Z,36.03
2018-12-14T15:32:19.435Z,37.87
2018-12-14T15:34:55.098Z,35.40
2018-12-14T15:37:31.393Z,35.03
2018-12-14T15:40:10.564Z,36.80
2018-12-14T15:42:47.976Z,34.57
2018-12-14T15:45:24.621Z,35.63
2018-12-14T15:48:00.636Z,39.30
2018-12-14T15:50:36.553Z,39.63
2018-12-14T15:53:12.364Z,41.20
2018-12-14T15:55:48.270Z,41.53
2018-12-14T15:58:24.105Z,38.93
2018-12-14T16:01:00.135Z,37.70
2018-12-14T16:03:37.187Z,35.37
2018-12-14T16:06:13.519Z,36.33
2018-12-14T16:08:50.319Z,38.27
2018-12-14T16:11:26.362Z,39.03
2018-12-14T16:14:02.980Z,35.40
2018-12-14T16:16:39.009Z,33.57
2018-12-14T16:19:15.803Z,33.80
2018-12-14T16:21:51.507Z,30.23
2018-12-14T16:24:27.148Z,31.77
2018-12-14T16:27:03.905Z,25.63
2018-12-14T16:29:40.478Z,27.30
2018-12-14T16:32:16.761Z,24.20
2018-12-14T16:35:07.265Z,25.43
2018-12-14T16:37:43.756Z,25.40
2018-12-14T16:40:19.942Z,28.13
2018-12-14T16:42:56.491Z,22.43
2018-12-14T16:45:32.430Z,26.57
2018-12-14T16:48:08.820Z,29.37
2018-12-14T16:50:45.511Z,28.10
2018-12-14T16:53:21.416Z,27.27
2018-12-14T16:55:56.886Z,30.27
2018-12-14T16:58:32.947Z,31.97
2018-12-14T17:01:09.679Z,29.03
2018-12-14T17:03:45.903Z,27.47
2018-12-14T17:06:22.882Z,29.60
2018-12-14T17:08:59.018Z,34.17
2018-12-14T17:11:35.475Z,31.30
2018-12-14T17:14:11.129Z,29.97
2018-12-14T17:16:47.415Z,28.13
2018-12-14T17:19:23.313Z,30.00
2018-12-14T17:21:58.970Z,29.87
2018-12-14T17:24:34.866Z,27.87
2018-12-14T17:27:10.862Z,29.60
2018-12-14T17:29:47.119Z,29.87
2018-12-14T17:32:24.255Z,30.83
2018-12-14T17:35:00.662Z,29.20
2018-12-14T17:37:37.146Z,27.20
2018-12-14T17:40:13.171Z,27.97
2018-12-14T17:42:52.001Z,29.23
2018-12-14T17:45:28.663Z,28.80
2018-12-14T17:48:05.953Z,37.13
2018-12-14T17:50:42.155Z,37.63
2018-12-14T17:53:18.916Z,38.73
2018-12-14T17:55:55.658Z,37.90
2018-12-14T17:58:31.528Z,40.23
2018-12-14T18:01:07.543Z,38.87
2018-12-14T18:03:43.472Z,38.13
2018-12-14T18:06:21.735Z,39.73
2018-12-14T18:08:58.108Z,41.40
2018-12-14T18:11:34.658Z,39.63
2018-12-14T18:14:11.083Z,38.97
2018-12-14T18:16:47.788Z,38.20
2018-12-14T18:19:24.272Z,39.90
2018-12-14T18:22:00.491Z,38.13
2018-12-14T18:24:37.838Z,39.77
2018-12-14T18:27:17.663Z,36.67
2018-12-14T18:29:54.822Z,35.83
2018-12-14T18:32:31.796Z,37.20
2018-12-14T18:35:11.751Z,39.20
2018-12-14T18:37:48.078Z,40.67
2018-12-14T18:40:23.918Z,38.63
2018-12-14T18:43:01.003Z,38.13
2018-12-14T18:45:37.071Z,40.80
2018-12-14T18:48:14.439Z,35.30
2018-12-14T18:50:50.856Z,35.53
2018-12-14T18:53:27.167Z,35.63
2018-12-14T18:56:04.453Z,44.63
2018-12-14T18:58:41.882Z,40.63
2018-12-14T19:01:18.464Z,40.53
2018-12-14T19:03:57.257Z,44.73
2018-12-14T19:06:34.412Z,42.20
2018-12-14T19:09:10.973Z,43.23
2018-12-14T19:11:49.227Z,49.67
2018-12-14T19:14:25.445Z,44.23
2018-12-14T19:17:02.203Z,43.60
2018-12-14T19:19:39.286Z,45.67
2018-12-14T19:22:15.190Z,40.70
2018-12-14T19:24:51.310Z,42.73
2018-12-14T19:27:27.529Z,43.17
2018-12-14T19:30:04.875Z,48.50
2018-12-14T19:32:40.640Z,45.30
2018-12-14T19:35:18.502Z,48.23
2018-12-14T19:37:54.540Z,46.80
2018-12-14T19:40:31.039Z,47.83
2018-12-14T19:43:07.003Z,44.23
2018-12-14T19:45:43.767Z,48.67
2018-12-14T19:48:20.243Z,43.07
2018-12-14T19:50:56.220Z,48.93
2018-12-14T19:53:31.940Z,44.10
2018-12-14T19:56:07.749Z,49.63
2018-12-14T19:58:43.732Z,50.90
2018-12-14T20:01:19.597Z,49.13
2018-12-14T20:03:55.151Z,61.90
2018-12-14T20:06:31.359Z,53.17
2018-12-14T20:09:08.181Z,50.83
2018-12-14T20:11:44.379Z,60.23
2018-12-14T20:14:20.888Z,68.33
2018-12-14T20:16:56.846Z,107.00
2018-12-14T20:19:33.320Z,56.80
2018-12-14T20:22:10.022Z,52.37
2018-12-14T20:24:46.326Z,60.17
2018-12-14T20:27:23.355Z,61.30
2018-12-14T20:30:03.395Z,59.27
2018-12-14T20:32:42.595Z,59.83
2018-12-14T20:35:23.524Z,55.13
2018-12-14T20:38:01.160Z,61.13
2018-12-14T20:40:40.481Z,54.67
2018-12-14T20:43:18.224Z,60.37
2018-12-14T20:45:55.130Z,58.10
2018-12-14T20:48:32.479Z,60.67
2018-12-14T20:51:11.630Z,55.10
2018-12-14T20:53:51.679Z,61.57
2018-12-14T20:56:31.624Z,59.27
2018-12-14T20:59:08.928Z,84.77
2018-12-14T21:01:45.745Z,70.93
2018-12-14T21:04:24.285Z,58.70
2018-12-14T21:07:03.930Z,58.17
2018-12-14T21:09:42.192Z,62.07
2018-12-14T21:12:18.966Z,56.90
2018-12-14T21:14:54.679Z,52.87
2018-12-14T21:17:32.369Z,59.43
2018-12-14T21:20:10.933Z,57.43
2018-12-14T21:22:50.348Z,62.40
2018-12-14T21:25:28.830Z,54.07
2018-12-14T21:28:07.421Z,55.33
2018-12-14T21:30:44.760Z,58.13
2018-12-14T21:33:27.611Z,55.73
2018-12-14T21:36:05.486Z,59.87
2018-12-14T21:38:46.141Z,59.97
2018-12-14T21:41:26.523Z,64.77
2018-12-14T21:44:09.657Z,60.73
2018-12-14T21:47:04.928Z,56.63
2018-12-14T21:49:54.107Z,58.97
2018-12-14T21:52:31.667Z,58.67
2018-12-14T21:55:08.976Z,62.30
2018-12-14T21:57:52.517Z,64.60
2018-12-14T22:00:28.629Z,63.23
2018-12-14T22:03:08.044Z,59.83
2018-12-14T22:05:47.207Z,58.70
2018-12-14T22:08:27.647Z,61.43
2018-12-14T22:11:05.918Z,60.07
2018-12-14T22:13:42.552Z,60.90
2018-12-14T22:16:18.504Z,64.13
2018-12-14T22:18:54.317Z,70.53
2018-12-14T22:21:30.095Z,70.20
2018-12-14T22:24:05.945Z,64.97
2018-12-14T22:26:41.877Z,70.87
2018-12-14T22:29:17.613Z,63.37
2018-12-14T22:31:53.522Z,65.23
2018-12-14T22:34:29.447Z,67.73
2018-12-14T22:37:05.524Z,63.60
2018-12-14T22:39:41.814Z,70.00
2018-12-14T22:42:18.298Z,69.70
2018-12-14T22:44:54.103Z,69.53
2018-12-14T22:47:30.290Z,70.37
2018-12-14T22:50:06.161Z,77.57
2018-12-14T22:52:42.566Z,76.20
2018-12-14T22:55:18.608Z,71.90
2018-12-14T22:57:55.194Z,77.37
2018-12-14T23:00:31.536Z,68.30
2018-12-14T23:03:10.236Z,72.50
2018-12-14T23:05:47.773Z,69.20
2018-12-14T23:08:23.577Z,72.43
2018-12-14T23:10:59.938Z,66.83
2018-12-14T23:13:35.690Z,73.23
2018-12-14T23:16:11.656Z,76.73
2018-12-14T23:18:48.208Z,82.47
2018-12-14T23:21:24.196Z,82.30
2018-12-14T23:24:01.026Z,78.37
2018-12-14T23:26:37.060Z,79.83
2018-12-14T23:29:13.195Z,85.57
2018-12-14T23:31:48.991Z,70.63
2018-12-14T23:34:24.840Z,75.10
2018-12-14T23:37:01.364Z,81.70
2018-12-14T23:39:37.719Z,82.23
2018-12-14T23:42:13.718Z,89.93
2018-12-14T23:44:49.725Z,74.70
2018-12-14T23:47:25.735Z,75.27
2018-12-14T23:50:03.193Z,76.63
2018-12-14T23:52:39.733Z,73.50
2018-12-14T23:55:15.927Z,79.17
2018-12-14T23:57:51.714Z,74.93
